sensor_id;sensor_type;location;lat;lon;timestamp;P1;durP1;ratioP1;P2;durP2;ratioP2
22812;SDS011;11573;51.334;3.244;2023-04-15T00:01:47;4.40;;;4.00;;
22812;SDS011;11573;51.334;3.244;2023-04-15T00:04:14;5.13;;;3.40;;
22812;SDS011;11573;51.334;3.244;2023-04-15T00:06:41;5.75;;;3.60;;
22812;SDS011;11573;51.334;3.244;2023-04-15T00:09:08;5.72;;;4.25;;
22812;SDS011;11573;51.334;3.244;2023-04-15T00:11:35;7.07;;;4.50;;
22812;SDS011;11573;51.334;3.244;2023-04-15T00:14:02;5.68;;;4.53;;
22812;SDS011;11573;51.334;3.244;2023-04-15T00:16:30;5.93;;;4.47;;
22812;SDS011;11573;51.334;3.244;2023-04-15T00:18:56;9.30;;;4.95;;
22812;SDS011;11573;51.334;3.244;2023-04-15T00:21:24;7.57;;;5.30;;
22812;SDS011;11573;51.334;3.244;2023-04-15T00:23:52;6.13;;;4.50;;
22812;SDS011;11573;51.334;3.244;2023-04-15T00:26:20;8.18;;;4.47;;
22812;SDS011;11573;51.334;3.244;2023-04-15T00:28:48;4.85;;;3.90;;
22812;SDS011;11573;51.334;3.244;2023-04-15T00:31:15;6.30;;;4.20;;
22812;SDS011;11573;51.334;3.244;2023-04-15T00:33:42;6.00;;;4.35;;
22812;SDS011;11573;51.334;3.244;2023-04-15T00:36:10;6.55;;;4.10;;
22812;SDS011;11573;51.334;3.244;2023-04-15T00:38:36;6.13;;;3.97;;
22812;SDS011;11573;51.334;3.244;2023-04-15T00:41:04;5.72;;;4.22;;
22812;SDS011;11573;51.334;3.244;2023-04-15T00:43:31;7.82;;;3.75;;
22812;SDS011;11573;51.334;3.244;2023-04-15T00:45:58;4.13;;;3.47;;
22812;SDS011;11573;51.334;3.244;2023-04-15T00:48:26;5.65;;;3.95;;
22812;SDS011;11573;51.334;3.244;2023-04-15T00:50:53;4.43;;;3.53;;
22812;SDS011;11573;51.334;3.244;2023-04-15T00:53:21;7.53;;;4.10;;
22812;SDS011;11573;51.334;3.244;2023-04-15T00:55:48;6.68;;;4.82;;
22812;SDS011;11573;51.334;3.244;2023-04-15T00:58:15;5.47;;;3.58;;
22812;SDS011;11573;51.334;3.244;2023-04-15T01:00:42;5.93;;;3.30;;
22812;SDS011;11573;51.334;3.244;2023-04-15T01:03:09;5.20;;;3.67;;
22812;SDS011;11573;51.334;3.244;2023-04-15T01:05:37;5.80;;;3.10;;
22812;SDS011;11573;51.334;3.244;2023-04-15T01:08:05;6.43;;;2.85;;
22812;SDS011;11573;51.334;3.244;2023-04-15T01:10:32;3.20;;;2.70;;
22812;SDS011;11573;51.334;3.244;2023-04-15T01:12:59;6.30;;;2.88;;
22812;SDS011;11573;51.334;3.244;2023-04-15T01:15:26;4.63;;;3.40;;
22812;SDS011;11573;51.334;3.244;2023-04-15T01:17:53;3.58;;;2.78;;
22812;SDS011;11573;51.334;3.244;2023-04-15T01:20:20;6.32;;;2.70;;
22812;SDS011;11573;51.334;3.244;2023-04-15T01:22:48;2.40;;;2.20;;
22812;SDS011;11573;51.334;3.244;2023-04-15T01:25:18;4.03;;;2.47;;
22812;SDS011;11573;51.334;3.244;2023-04-15T01:27:52;6.07;;;2.45;;
22812;SDS011;11573;51.334;3.244;2023-04-15T01:30:19;4.10;;;2.50;;
22812;SDS011;11573;51.334;3.244;2023-04-15T01:32:47;5.25;;;2.85;;
22812;SDS011;11573;51.334;3.244;2023-04-15T01:35:14;6.30;;;3.20;;
22812;SDS011;11573;51.334;3.244;2023-04-15T01:37:41;7.38;;;2.80;;
22812;SDS011;11573;51.334;3.244;2023-04-15T01:40:08;9.15;;;3.53;;
22812;SDS011;11573;51.334;3.244;2023-04-15T01:42:35;6.45;;;3.08;;
22812;SDS011;11573;51.334;3.244;2023-04-15T01:45:03;8.13;;;2.67;;
22812;SDS011;11573;51.334;3.244;2023-04-15T01:47:30;4.78;;;2.55;;
22812;SDS011;11573;51.334;3.244;2023-04-15T01:49:57;5.35;;;2.90;;
22812;SDS011;11573;51.334;3.244;2023-04-15T01:52:24;9.05;;;3.33;;
22812;SDS011;11573;51.334;3.244;2023-04-15T01:54:51;5.63;;;3.33;;
22812;SDS011;11573;51.334;3.244;2023-04-15T01:57:18;9.38;;;4.80;;
22812;SDS011;11573;51.334;3.244;2023-04-15T01:59:45;13.38;;;6.82;;
22812;SDS011;11573;51.334;3.244;2023-04-15T02:02:13;10.77;;;6.30;;
22812;SDS011;11573;51.334;3.244;2023-04-15T02:04:40;14.90;;;5.78;;
22812;SDS011;11573;51.334;3.244;2023-04-15T02:07:07;7.53;;;5.13;;
22812;SDS011;11573;51.334;3.244;2023-04-15T02:09:34;9.73;;;5.85;;
22812;SDS011;11573;51.334;3.244;2023-04-15T02:12:01;11.75;;;6.57;;
22812;SDS011;11573;51.334;3.244;2023-04-15T02:14:28;11.85;;;7.60;;
22812;SDS011;11573;51.334;3.244;2023-04-15T02:16:55;13.60;;;8.40;;
22812;SDS011;11573;51.334;3.244;2023-04-15T02:19:22;16.60;;;9.20;;
22812;SDS011;11573;51.334;3.244;2023-04-15T02:21:50;16.23;;;8.80;;
22812;SDS011;11573;51.334;3.244;2023-04-15T02:24:17;19.95;;;10.25;;
22812;SDS011;11573;51.334;3.244;2023-04-15T02:26:44;16.35;;;11.55;;
22812;SDS011;11573;51.334;3.244;2023-04-15T02:29:12;26.58;;;13.32;;
22812;SDS011;11573;51.334;3.244;2023-04-15T02:31:39;21.63;;;13.32;;
22812;SDS011;11573;51.334;3.244;2023-04-15T02:34:07;20.85;;;12.30;;
22812;SDS011;11573;51.334;3.244;2023-04-15T02:36:34;18.67;;;11.60;;
22812;SDS011;11573;51.334;3.244;2023-04-15T02:39:03;20.63;;;13.20;;
22812;SDS011;11573;51.334;3.244;2023-04-15T02:41:30;24.55;;;13.68;;
22812;SDS011;11573;51.334;3.244;2023-04-15T02:43:57;20.75;;;12.48;;
22812;SDS011;11573;51.334;3.244;2023-04-15T02:46:24;20.17;;;12.50;;
22812;SDS011;11573;51.334;3.244;2023-04-15T02:48:52;21.67;;;12.07;;
22812;SDS011;11573;51.334;3.244;2023-04-15T02:51:21;20.20;;;12.75;;
22812;SDS011;11573;51.334;3.244;2023-04-15T02:53:48;18.70;;;11.75;;
22812;SDS011;11573;51.334;3.244;2023-04-15T02:56:15;22.38;;;11.65;;
22812;SDS011;11573;51.334;3.244;2023-04-15T02:58:44;23.40;;;12.25;;
22812;SDS011;11573;51.334;3.244;2023-04-15T03:01:11;16.80;;;10.85;;
22812;SDS011;11573;51.334;3.244;2023-04-15T03:03:40;21.65;;;10.40;;
22812;SDS011;11573;51.334;3.244;2023-04-15T03:06:07;13.70;;;8.80;;
22812;SDS011;11573;51.334;3.244;2023-04-15T03:08:35;17.50;;;8.63;;
22812;SDS011;11573;51.334;3.244;2023-04-15T03:11:02;13.52;;;7.82;;
22812;SDS011;11573;51.334;3.244;2023-04-15T03:13:31;13.93;;;7.43;;
22812;SDS011;11573;51.334;3.244;2023-04-15T03:16:03;18.20;;;7.55;;
22812;SDS011;11573;51.334;3.244;2023-04-15T03:18:31;9.93;;;7.13;;
22812;SDS011;11573;51.334;3.244;2023-04-15T03:21:01;17.33;;;7.28;;
22812;SDS011;11573;51.334;3.244;2023-04-15T03:23:31;15.68;;;7.45;;
22812;SDS011;11573;51.334;3.244;2023-04-15T03:26:00;18.45;;;7.30;;
22812;SDS011;11573;51.334;3.244;2023-04-15T03:28:29;17.77;;;8.05;;
22812;SDS011;11573;51.334;3.244;2023-04-15T03:30:57;17.27;;;7.97;;
22812;SDS011;11573;51.334;3.244;2023-04-15T03:33:25;23.35;;;8.40;;
22812;SDS011;11573;51.334;3.244;2023-04-15T03:35:52;14.73;;;7.90;;
22812;SDS011;11573;51.334;3.244;2023-04-15T03:38:19;19.00;;;9.90;;
22812;SDS011;11573;51.334;3.244;2023-04-15T03:40:46;28.67;;;13.07;;
22812;SDS011;11573;51.334;3.244;2023-04-15T03:43:13;31.70;;;14.50;;
22812;SDS011;11573;51.334;3.244;2023-04-15T03:45:40;23.25;;;13.25;;
22812;SDS011;11573;51.334;3.244;2023-04-15T03:48:07;33.47;;;14.35;;
22812;SDS011;11573;51.334;3.244;2023-04-15T03:50:43;29.08;;;15.00;;
22812;SDS011;11573;51.334;3.244;2023-04-15T03:53:11;32.08;;;16.15;;
22812;SDS011;11573;51.334;3.244;2023-04-15T03:55:38;40.38;;;17.60;;
22812;SDS011;11573;51.334;3.244;2023-04-15T03:58:05;30.67;;;16.33;;
22812;SDS011;11573;51.334;3.244;2023-04-15T04:00:32;28.77;;;16.33;;
22812;SDS011;11573;51.334;3.244;2023-04-15T04:02:59;39.33;;;16.38;;
22812;SDS011;11573;51.334;3.244;2023-04-15T04:05:26;30.65;;;15.93;;
22812;SDS011;11573;51.334;3.244;2023-04-15T04:07:53;39.83;;;16.38;;
22812;SDS011;11573;51.334;3.244;2023-04-15T04:10:20;30.65;;;16.98;;
22812;SDS011;11573;51.334;3.244;2023-04-15T04:12:47;31.02;;;17.08;;
22812;SDS011;11573;51.334;3.244;2023-04-15T04:15:14;31.00;;;17.17;;
22812;SDS011;11573;51.334;3.244;2023-04-15T04:17:41;39.55;;;20.35;;
22812;SDS011;11573;51.334;3.244;2023-04-15T04:20:08;34.13;;;17.67;;
22812;SDS011;11573;51.334;3.244;2023-04-15T04:22:36;39.83;;;20.30;;
22812;SDS011;11573;51.334;3.244;2023-04-15T04:25:07;42.75;;;23.45;;
22812;SDS011;11573;51.334;3.244;2023-04-15T04:27:35;45.40;;;23.80;;
22812;SDS011;11573;51.334;3.244;2023-04-15T04:30:03;53.72;;;26.95;;
22812;SDS011;11573;51.334;3.244;2023-04-15T04:32:31;45.50;;;28.77;;
22812;SDS011;11573;51.334;3.244;2023-04-15T04:34:58;43.80;;;27.85;;
22812;SDS011;11573;51.334;3.244;2023-04-15T04:37:25;47.55;;;28.48;;
22812;SDS011;11573;51.334;3.244;2023-04-15T04:39:52;47.38;;;29.25;;
22812;SDS011;11573;51.334;3.244;2023-04-15T04:42:19;40.53;;;24.77;;
22812;SDS011;11573;51.334;3.244;2023-04-15T04:44:46;40.80;;;22.80;;
22812;SDS011;11573;51.334;3.244;2023-04-15T04:47:13;33.17;;;18.35;;
22812;SDS011;11573;51.334;3.244;2023-04-15T04:49:40;31.55;;;17.02;;
22812;SDS011;11573;51.334;3.244;2023-04-15T04:52:07;33.63;;;17.73;;
22812;SDS011;11573;51.334;3.244;2023-04-15T04:54:34;30.17;;;18.70;;
22812;SDS011;11573;51.334;3.244;2023-04-15T04:57:01;41.05;;;22.33;;
22812;SDS011;11573;51.334;3.244;2023-04-15T04:59:28;39.95;;;23.67;;
22812;SDS011;11573;51.334;3.244;2023-04-15T05:01:55;37.25;;;20.75;;
22812;SDS011;11573;51.334;3.244;2023-04-15T05:04:22;32.67;;;21.13;;
22812;SDS011;11573;51.334;3.244;2023-04-15T05:06:49;32.72;;;19.05;;
22812;SDS011;11573;51.334;3.244;2023-04-15T05:09:17;33.42;;;17.95;;
22812;SDS011;11573;51.334;3.244;2023-04-15T05:11:44;29.35;;;16.63;;
22812;SDS011;11573;51.334;3.244;2023-04-15T05:14:11;27.77;;;15.48;;
22812;SDS011;11573;51.334;3.244;2023-04-15T05:16:38;26.25;;;16.20;;
22812;SDS011;11573;51.334;3.244;2023-04-15T05:19:05;28.35;;;16.70;;
22812;SDS011;11573;51.334;3.244;2023-04-15T05:21:33;25.00;;;13.38;;
22812;SDS011;11573;51.334;3.244;2023-04-15T05:24:00;27.48;;;13.52;;
22812;SDS011;11573;51.334;3.244;2023-04-15T05:26:26;16.10;;;10.45;;
22812;SDS011;11573;51.334;3.244;2023-04-15T05:28:54;19.48;;;9.75;;
22812;SDS011;11573;51.334;3.244;2023-04-15T05:31:21;18.85;;;9.70;;
22812;SDS011;11573;51.334;3.244;2023-04-15T05:33:48;20.95;;;8.05;;
22812;SDS011;11573;51.334;3.244;2023-04-15T05:36:15;15.23;;;7.00;;
22812;SDS011;11573;51.334;3.244;2023-04-15T05:38:41;14.20;;;6.40;;
22812;SDS011;11573;51.334;3.244;2023-04-15T05:41:08;10.38;;;4.95;;
22812;SDS011;11573;51.334;3.244;2023-04-15T05:43:35;11.98;;;4.57;;
22812;SDS011;11573;51.334;3.244;2023-04-15T05:46:02;13.30;;;4.18;;
22812;SDS011;11573;51.334;3.244;2023-04-15T05:48:29;16.10;;;4.55;;
22812;SDS011;11573;51.334;3.244;2023-04-15T05:50:57;7.75;;;3.58;;
22812;SDS011;11573;51.334;3.244;2023-04-15T05:53:24;7.63;;;3.22;;
22812;SDS011;11573;51.334;3.244;2023-04-15T05:55:51;7.75;;;3.38;;
22812;SDS011;11573;51.334;3.244;2023-04-15T05:58:18;5.97;;;3.45;;
22812;SDS011;11573;51.334;3.244;2023-04-15T06:00:45;7.32;;;3.72;;
22812;SDS011;11573;51.334;3.244;2023-04-15T06:03:12;9.85;;;4.05;;
22812;SDS011;11573;51.334;3.244;2023-04-15T06:05:39;11.35;;;3.88;;
22812;SDS011;11573;51.334;3.244;2023-04-15T06:08:06;12.68;;;3.45;;
22812;SDS011;11573;51.334;3.244;2023-04-15T06:10:34;9.90;;;3.30;;
22812;SDS011;11573;51.334;3.244;2023-04-15T06:13:02;7.45;;;3.28;;
22812;SDS011;11573;51.334;3.244;2023-04-15T06:15:29;14.35;;;3.58;;
22812;SDS011;11573;51.334;3.244;2023-04-15T06:17:57;10.73;;;2.58;;
22812;SDS011;11573;51.334;3.244;2023-04-15T06:20:24;8.52;;;2.42;;
22812;SDS011;11573;51.334;3.244;2023-04-15T06:22:51;9.00;;;2.38;;
22812;SDS011;11573;51.334;3.244;2023-04-15T06:25:18;8.10;;;2.65;;
22812;SDS011;11573;51.334;3.244;2023-04-15T06:27:45;5.25;;;2.17;;
22812;SDS011;11573;51.334;3.244;2023-04-15T06:30:12;7.20;;;1.70;;
22812;SDS011;11573;51.334;3.244;2023-04-15T06:32:39;5.45;;;1.80;;
22812;SDS011;11573;51.334;3.244;2023-04-15T06:35:06;7.32;;;1.98;;
22812;SDS011;11573;51.334;3.244;2023-04-15T06:37:33;5.20;;;1.63;;
22812;SDS011;11573;51.334;3.244;2023-04-15T06:40:00;5.53;;;1.90;;
22812;SDS011;11573;51.334;3.244;2023-04-15T06:42:27;9.98;;;2.42;;
22812;SDS011;11573;51.334;3.244;2023-04-15T06:44:54;4.90;;;1.80;;
22812;SDS011;11573;51.334;3.244;2023-04-15T06:47:22;4.80;;;1.83;;
22812;SDS011;11573;51.334;3.244;2023-04-15T06:49:48;6.25;;;1.88;;
22812;SDS011;11573;51.334;3.244;2023-04-15T06:52:15;3.78;;;1.38;;
22812;SDS011;11573;51.334;3.244;2023-04-15T06:54:42;3.58;;;1.50;;
22812;SDS011;11573;51.334;3.244;2023-04-15T06:57:09;4.72;;;1.38;;
22812;SDS011;11573;51.334;3.244;2023-04-15T06:59:36;3.75;;;1.70;;
22812;SDS011;11573;51.334;3.244;2023-04-15T07:02:03;5.82;;;1.95;;
22812;SDS011;11573;51.334;3.244;2023-04-15T07:04:31;3.63;;;1.70;;
22812;SDS011;11573;51.334;3.244;2023-04-15T07:06:59;2.97;;;1.40;;
22812;SDS011;11573;51.334;3.244;2023-04-15T07:09:26;5.43;;;2.08;;
22812;SDS011;11573;51.334;3.244;2023-04-15T07:11:52;6.07;;;3.38;;
22812;SDS011;11573;51.334;3.244;2023-04-15T07:14:19;13.73;;;5.65;;
22812;SDS011;11573;51.334;3.244;2023-04-15T07:16:46;12.32;;;7.18;;
22812;SDS011;11573;51.334;3.244;2023-04-15T07:19:13;22.77;;;7.80;;
22812;SDS011;11573;51.334;3.244;2023-04-15T07:21:40;19.08;;;8.13;;
22812;SDS011;11573;51.334;3.244;2023-04-15T07:24:08;15.27;;;7.50;;
22812;SDS011;11573;51.334;3.244;2023-04-15T07:26:35;13.65;;;6.88;;
22812;SDS011;11573;51.334;3.244;2023-04-15T07:29:02;16.65;;;6.20;;
22812;SDS011;11573;51.334;3.244;2023-04-15T07:31:29;16.98;;;8.95;;
22812;SDS011;11573;51.334;3.244;2023-04-15T07:33:57;22.95;;;14.63;;
22812;SDS011;11573;51.334;3.244;2023-04-15T07:36:24;20.50;;;14.93;;
22812;SDS011;11573;51.334;3.244;2023-04-15T07:38:50;30.35;;;16.77;;
22812;SDS011;11573;51.334;3.244;2023-04-15T07:41:18;28.70;;;16.30;;
22812;SDS011;11573;51.334;3.244;2023-04-15T07:43:45;22.90;;;15.85;;
22812;SDS011;11573;51.334;3.244;2023-04-15T07:46:14;26.08;;;16.58;;
22812;SDS011;11573;51.334;3.244;2023-04-15T07:48:41;23.50;;;16.48;;
22812;SDS011;11573;51.334;3.244;2023-04-15T07:51:08;22.52;;;16.20;;
22812;SDS011;11573;51.334;3.244;2023-04-15T07:53:36;24.85;;;15.27;;
22812;SDS011;11573;51.334;3.244;2023-04-15T07:56:03;24.85;;;15.68;;
22812;SDS011;11573;51.334;3.244;2023-04-15T07:58:30;21.05;;;14.90;;
22812;SDS011;11573;51.334;3.244;2023-04-15T08:00:57;20.20;;;14.45;;
22812;SDS011;11573;51.334;3.244;2023-04-15T08:03:24;21.17;;;15.38;;
22812;SDS011;11573;51.334;3.244;2023-04-15T08:05:52;26.83;;;14.90;;
22812;SDS011;11573;51.334;3.244;2023-04-15T08:08:19;29.98;;;14.13;;
22812;SDS011;11573;51.334;3.244;2023-04-15T08:10:48;21.38;;;13.70;;
22812;SDS011;11573;51.334;3.244;2023-04-15T08:13:18;23.13;;;14.32;;
22812;SDS011;11573;51.334;3.244;2023-04-15T08:15:45;19.55;;;14.15;;
22812;SDS011;11573;51.334;3.244;2023-04-15T08:18:19;24.45;;;14.60;;
22812;SDS011;11573;51.334;3.244;2023-04-15T08:20:45;21.42;;;15.23;;
22812;SDS011;11573;51.334;3.244;2023-04-15T08:23:13;20.52;;;13.90;;
22812;SDS011;11573;51.334;3.244;2023-04-15T08:25:39;22.45;;;14.65;;
22812;SDS011;11573;51.334;3.244;2023-04-15T08:28:07;20.30;;;14.02;;
22812;SDS011;11573;51.334;3.244;2023-04-15T08:30:34;24.30;;;14.30;;
22812;SDS011;11573;51.334;3.244;2023-04-15T08:33:01;20.25;;;13.82;;
22812;SDS011;11573;51.334;3.244;2023-04-15T08:35:28;20.50;;;13.60;;
22812;SDS011;11573;51.334;3.244;2023-04-15T08:37:55;25.35;;;14.13;;
22812;SDS011;11573;51.334;3.244;2023-04-15T08:40:22;23.95;;;13.27;;
22812;SDS011;11573;51.334;3.244;2023-04-15T08:43:01;16.98;;;13.07;;
22812;SDS011;11573;51.334;3.244;2023-04-15T08:45:30;23.02;;;14.15;;
22812;SDS011;11573;51.334;3.244;2023-04-15T08:47:57;24.02;;;12.65;;
22812;SDS011;11573;51.334;3.244;2023-04-15T08:50:25;16.27;;;12.07;;
22812;SDS011;11573;51.334;3.244;2023-04-15T08:52:56;18.40;;;12.48;;
22812;SDS011;11573;51.334;3.244;2023-04-15T08:55:26;19.17;;;12.02;;
22812;SDS011;11573;51.334;3.244;2023-04-15T08:57:58;17.75;;;12.85;;
22812;SDS011;11573;51.334;3.244;2023-04-15T09:00:27;16.05;;;11.60;;
22812;SDS011;11573;51.334;3.244;2023-04-15T09:02:55;22.90;;;12.18;;
22812;SDS011;11573;51.334;3.244;2023-04-15T09:05:22;17.65;;;12.30;;
22812;SDS011;11573;51.334;3.244;2023-04-15T09:07:49;17.35;;;12.43;;
22812;SDS011;11573;51.334;3.244;2023-04-15T09:10:16;17.45;;;12.50;;
22812;SDS011;11573;51.334;3.244;2023-04-15T09:12:44;17.00;;;12.10;;
22812;SDS011;11573;51.334;3.244;2023-04-15T09:15:11;16.33;;;11.98;;
22812;SDS011;11573;51.334;3.244;2023-04-15T09:17:41;19.00;;;11.82;;
22812;SDS011;11573;51.334;3.244;2023-04-15T09:20:10;22.58;;;12.45;;
22812;SDS011;11573;51.334;3.244;2023-04-15T09:22:41;18.30;;;12.57;;
22812;SDS011;11573;51.334;3.244;2023-04-15T09:27:57;24.30;;;12.90;;
22812;SDS011;11573;51.334;3.244;2023-04-15T09:30:26;18.27;;;12.30;;
22812;SDS011;11573;51.334;3.244;2023-04-15T09:32:55;20.38;;;13.15;;
22812;SDS011;11573;51.334;3.244;2023-04-15T09:35:26;18.92;;;13.25;;
22812;SDS011;11573;51.334;3.244;2023-04-15T09:38:07;22.73;;;13.68;;
22812;SDS011;11573;51.334;3.244;2023-04-15T09:40:36;18.10;;;14.27;;
22812;SDS011;11573;51.334;3.244;2023-04-15T09:43:05;19.27;;;13.52;;
22812;SDS011;11573;51.334;3.244;2023-04-15T09:45:33;23.73;;;14.65;;
22812;SDS011;11573;51.334;3.244;2023-04-15T09:51:01;20.80;;;13.32;;
22812;SDS011;11573;51.334;3.244;2023-04-15T09:53:28;20.58;;;13.07;;
22812;SDS011;11573;51.334;3.244;2023-04-15T09:56:00;25.02;;;12.35;;
22812;SDS011;11573;51.334;3.244;2023-04-15T09:58:28;16.08;;;12.40;;
22812;SDS011;11573;51.334;3.244;2023-04-15T10:00:57;23.75;;;11.82;;
22812;SDS011;11573;51.334;3.244;2023-04-15T10:03:26;18.83;;;11.90;;
22812;SDS011;11573;51.334;3.244;2023-04-15T10:05:55;17.65;;;11.82;;
22812;SDS011;11573;51.334;3.244;2023-04-15T10:08:23;16.65;;;12.43;;
22812;SDS011;11573;51.334;3.244;2023-04-15T10:10:53;17.75;;;12.38;;
22812;SDS011;11573;51.334;3.244;2023-04-15T10:13:25;17.05;;;12.55;;
22812;SDS011;11573;51.334;3.244;2023-04-15T10:15:56;15.88;;;12.20;;
22812;SDS011;11573;51.334;3.244;2023-04-15T10:18:31;16.77;;;11.27;;
22812;SDS011;11573;51.334;3.244;2023-04-15T10:21:00;19.42;;;13.75;;
22812;SDS011;11573;51.334;3.244;2023-04-15T10:23:27;17.77;;;13.02;;
22812;SDS011;11573;51.334;3.244;2023-04-15T10:25:55;19.35;;;12.60;;
22812;SDS011;11573;51.334;3.244;2023-04-15T10:28:24;17.73;;;12.18;;
22812;SDS011;11573;51.334;3.244;2023-04-15T10:30:52;21.20;;;13.10;;
22812;SDS011;11573;51.334;3.244;2023-04-15T10:33:20;24.30;;;12.95;;
22812;SDS011;11573;51.334;3.244;2023-04-15T10:35:49;21.05;;;13.00;;
22812;SDS011;11573;51.334;3.244;2023-04-15T10:43:55;20.55;;;14.25;;
22812;SDS011;11573;51.334;3.244;2023-04-15T10:46:37;22.10;;;14.25;;
22812;SDS011;11573;51.334;3.244;2023-04-15T10:49:10;19.23;;;13.38;;
22812;SDS011;11573;51.334;3.244;2023-04-15T10:51:51;24.30;;;15.40;;
22812;SDS011;11573;51.334;3.244;2023-04-15T10:59:32;25.98;;;15.00;;
22812;SDS011;11573;51.334;3.244;2023-04-15T11:02:03;25.92;;;15.90;;
22812;SDS011;11573;51.334;3.244;2023-04-15T11:12:46;23.35;;;15.43;;
22812;SDS011;11573;51.334;3.244;2023-04-15T11:20:55;30.50;;;16.15;;
22812;SDS011;11573;51.334;3.244;2023-04-15T11:25:56;26.25;;;16.67;;
22812;SDS011;11573;51.334;3.244;2023-04-15T11:28:25;29.05;;;17.20;;
22812;SDS011;11573;51.334;3.244;2023-04-15T11:30:53;27.08;;;17.50;;
22812;SDS011;11573;51.334;3.244;2023-04-15T11:33:21;28.90;;;17.20;;
22812;SDS011;11573;51.334;3.244;2023-04-15T11:35:50;23.35;;;16.52;;
22812;SDS011;11573;51.334;3.244;2023-04-15T11:38:19;26.20;;;17.13;;
22812;SDS011;11573;51.334;3.244;2023-04-15T11:40:47;21.48;;;15.95;;
22812;SDS011;11573;51.334;3.244;2023-04-15T11:43:17;22.85;;;17.33;;
22812;SDS011;11573;51.334;3.244;2023-04-15T11:48:22;30.02;;;16.83;;
22812;SDS011;11573;51.334;3.244;2023-04-15T11:50:52;27.63;;;17.10;;
22812;SDS011;11573;51.334;3.244;2023-04-15T11:53:23;28.95;;;17.05;;
22812;SDS011;11573;51.334;3.244;2023-04-15T11:56:01;27.60;;;16.38;;
22812;SDS011;11573;51.334;3.244;2023-04-15T11:58:28;28.95;;;16.25;;
22812;SDS011;11573;51.334;3.244;2023-04-15T12:00:59;26.38;;;16.27;;
22812;SDS011;11573;51.334;3.244;2023-04-15T12:11:31;28.30;;;17.45;;
22812;SDS011;11573;51.334;3.244;2023-04-15T12:16:38;27.52;;;16.75;;
22812;SDS011;11573;51.334;3.244;2023-04-15T12:19:22;30.42;;;18.42;;
22812;SDS011;11573;51.334;3.244;2023-04-15T12:21:56;26.38;;;18.25;;
22812;SDS011;11573;51.334;3.244;2023-04-15T12:24:32;29.02;;;18.42;;
22812;SDS011;11573;51.334;3.244;2023-04-15T12:27:10;26.90;;;17.55;;
22812;SDS011;11573;51.334;3.244;2023-04-15T12:29:38;30.20;;;18.55;;
22812;SDS011;11573;51.334;3.244;2023-04-15T12:32:07;26.50;;;17.05;;
22812;SDS011;11573;51.334;3.244;2023-04-15T12:34:37;33.13;;;17.13;;
22812;SDS011;11573;51.334;3.244;2023-04-15T12:37:06;31.20;;;17.02;;
22812;SDS011;11573;51.334;3.244;2023-04-15T12:39:36;26.05;;;15.95;;
22812;SDS011;11573;51.334;3.244;2023-04-15T12:42:07;26.63;;;14.80;;
22812;SDS011;11573;51.334;3.244;2023-04-15T12:44:34;29.58;;;15.32;;
22812;SDS011;11573;51.334;3.244;2023-04-15T12:47:02;23.48;;;14.40;;
22812;SDS011;11573;51.334;3.244;2023-04-15T12:49:30;26.00;;;13.38;;
22812;SDS011;11573;51.334;3.244;2023-04-15T12:51:58;29.83;;;14.25;;
22812;SDS011;11573;51.334;3.244;2023-04-15T12:54:27;28.42;;;13.90;;
22812;SDS011;11573;51.334;3.244;2023-04-15T12:56:55;25.33;;;13.95;;
22812;SDS011;11573;51.334;3.244;2023-04-15T12:59:23;20.95;;;13.15;;
22812;SDS011;11573;51.334;3.244;2023-04-15T13:01:50;20.48;;;12.95;;
22812;SDS011;11573;51.334;3.244;2023-04-15T13:04:20;21.45;;;13.27;;
22812;SDS011;11573;51.334;3.244;2023-04-15T13:06:47;21.80;;;13.27;;
22812;SDS011;11573;51.334;3.244;2023-04-15T13:09:14;19.25;;;12.35;;
22812;SDS011;11573;51.334;3.244;2023-04-15T13:11:41;24.65;;;13.50;;
22812;SDS011;11573;51.334;3.244;2023-04-15T13:14:08;25.17;;;14.50;;
22812;SDS011;11573;51.334;3.244;2023-04-15T13:16:39;28.17;;;14.23;;
22812;SDS011;11573;51.334;3.244;2023-04-15T13:19:06;23.50;;;13.43;;
22812;SDS011;11573;51.334;3.244;2023-04-15T13:21:34;26.40;;;13.77;;
22812;SDS011;11573;51.334;3.244;2023-04-15T13:24:02;23.35;;;13.23;;
22812;SDS011;11573;51.334;3.244;2023-04-15T13:26:30;26.98;;;14.13;;
22812;SDS011;11573;51.334;3.244;2023-04-15T13:28:57;18.63;;;12.73;;
22812;SDS011;11573;51.334;3.244;2023-04-15T13:31:24;29.27;;;13.60;;
22812;SDS011;11573;51.334;3.244;2023-04-15T13:33:52;21.13;;;12.23;;
22812;SDS011;11573;51.334;3.244;2023-04-15T13:36:19;29.33;;;12.27;;
22812;SDS011;11573;51.334;3.244;2023-04-15T13:38:46;19.45;;;12.00;;
22812;SDS011;11573;51.334;3.244;2023-04-15T13:41:16;19.50;;;12.25;;
22812;SDS011;11573;51.334;3.244;2023-04-15T13:43:44;25.50;;;11.63;;
22812;SDS011;11573;51.334;3.244;2023-04-15T13:46:10;23.92;;;10.88;;
22812;SDS011;11573;51.334;3.244;2023-04-15T13:48:38;21.08;;;10.23;;
22812;SDS011;11573;51.334;3.244;2023-04-15T13:51:05;20.08;;;9.65;;
22812;SDS011;11573;51.334;3.244;2023-04-15T13:53:32;18.95;;;8.85;;
22812;SDS011;11573;51.334;3.244;2023-04-15T13:56:08;23.30;;;9.90;;
22812;SDS011;11573;51.334;3.244;2023-04-15T13:58:36;20.42;;;10.70;;
22812;SDS011;11573;51.334;3.244;2023-04-15T14:01:03;22.30;;;9.30;;
22812;SDS011;11573;51.334;3.244;2023-04-15T14:03:35;23.13;;;8.60;;
22812;SDS011;11573;51.334;3.244;2023-04-15T14:06:04;16.98;;;7.78;;
22812;SDS011;11573;51.334;3.244;2023-04-15T14:08:31;22.85;;;7.90;;
22812;SDS011;11573;51.334;3.244;2023-04-15T14:10:59;22.90;;;8.02;;
22812;SDS011;11573;51.334;3.244;2023-04-15T14:13:26;19.23;;;8.15;;
22812;SDS011;11573;51.334;3.244;2023-04-15T14:15:53;21.75;;;8.75;;
22812;SDS011;11573;51.334;3.244;2023-04-15T14:18:20;23.65;;;8.80;;
22812;SDS011;11573;51.334;3.244;2023-04-15T14:20:47;23.30;;;9.02;;
22812;SDS011;11573;51.334;3.244;2023-04-15T14:23:14;21.98;;;9.82;;
22812;SDS011;11573;51.334;3.244;2023-04-15T14:25:41;19.50;;;9.18;;
22812;SDS011;11573;51.334;3.244;2023-04-15T14:28:10;23.40;;;9.95;;
22812;SDS011;11573;51.334;3.244;2023-04-15T14:30:37;27.55;;;9.93;;
22812;SDS011;11573;51.334;3.244;2023-04-15T14:33:04;24.63;;;9.52;;
22812;SDS011;11573;51.334;3.244;2023-04-15T14:35:31;20.38;;;9.60;;
22812;SDS011;11573;51.334;3.244;2023-04-15T14:37:58;22.63;;;9.13;;
22812;SDS011;11573;51.334;3.244;2023-04-15T14:40:25;17.73;;;8.32;;
22812;SDS011;11573;51.334;3.244;2023-04-15T14:42:51;22.25;;;8.40;;
22812;SDS011;11573;51.334;3.244;2023-04-15T14:45:18;17.20;;;7.43;;
22812;SDS011;11573;51.334;3.244;2023-04-15T14:47:45;23.80;;;8.23;;
22812;SDS011;11573;51.334;3.244;2023-04-15T14:50:13;17.80;;;7.10;;
22812;SDS011;11573;51.334;3.244;2023-04-15T14:52:40;14.27;;;7.13;;
22812;SDS011;11573;51.334;3.244;2023-04-15T14:55:07;18.55;;;6.70;;
22812;SDS011;11573;51.334;3.244;2023-04-15T14:57:36;18.38;;;6.18;;
22812;SDS011;11573;51.334;3.244;2023-04-15T15:00:03;16.67;;;5.85;;
22812;SDS011;11573;51.334;3.244;2023-04-15T15:02:32;14.43;;;5.80;;
22812;SDS011;11573;51.334;3.244;2023-04-15T15:05:05;13.50;;;4.85;;
22812;SDS011;11573;51.334;3.244;2023-04-15T15:07:34;15.80;;;5.57;;
22812;SDS011;11573;51.334;3.244;2023-04-15T15:10:02;10.70;;;4.53;;
22812;SDS011;11573;51.334;3.244;2023-04-15T15:12:31;14.27;;;5.22;;
22812;SDS011;11573;51.334;3.244;2023-04-15T15:14:58;17.25;;;4.88;;
22812;SDS011;11573;51.334;3.244;2023-04-15T15:17:28;13.95;;;4.47;;
22812;SDS011;11573;51.334;3.244;2023-04-15T15:19:58;18.95;;;4.90;;
22812;SDS011;11573;51.334;3.244;2023-04-15T15:22:25;15.95;;;4.22;;